sensor_id;sensor_type;location;lat;lon;timestamp;P1;durP1;ratioP1;P2;durP2;ratioP2
41446;SDS011;27185;52.040;4.490;2022-07-29T00:01:38;1.50;;;0.65;;
41446;SDS011;27185;52.040;4.490;2022-07-29T00:04:23;3.47;;;0.50;;
41446;SDS011;27185;52.040;4.490;2022-07-29T00:07:09;1.15;;;0.40;;
41446;SDS011;27185;52.040;4.490;2022-07-29T00:09:54;1.65;;;0.40;;
41446;SDS011;27185;52.040;4.490;2022-07-29T00:12:40;2.28;;;0.55;;
41446;SDS011;27185;52.040;4.490;2022-07-29T00:15:26;2.40;;;0.80;;
41446;SDS011;27185;52.040;4.490;2022-07-29T00:18:11;3.30;;;0.60;;
41446;SDS011;27185;52.040;4.490;2022-07-29T00:20:57;2.83;;;0.50;;
41446;SDS011;27185;52.040;4.490;2022-07-29T00:23:42;1.75;;;0.40;;
41446;SDS011;27185;52.040;4.490;2022-07-29T00:26:28;2.63;;;0.60;;
41446;SDS011;27185;52.040;4.490;2022-07-29T00:29:16;1.58;;;0.40;;
41446;SDS011;27185;52.040;4.490;2022-07-29T00:32:02;3.17;;;0.50;;
41446;SDS011;27185;52.040;4.490;2022-07-29T00:34:48;2.58;;;0.55;;
41446;SDS011;27185;52.040;4.490;2022-07-29T00:37:52;1.80;;;0.50;;
41446;SDS011;27185;52.040;4.490;2022-07-29T00:40:37;3.35;;;0.60;;
41446;SDS011;27185;52.040;4.490;2022-07-29T00:43:23;1.67;;;0.50;;
41446;SDS011;27185;52.040;4.490;2022-07-29T00:46:09;2.60;;;0.50;;
41446;SDS011;27185;52.040;4.490;2022-07-29T00:48:55;1.92;;;0.40;;
41446;SDS011;27185;52.040;4.490;2022-07-29T00:51:41;0.90;;;0.40;;
41446;SDS011;27185;52.040;4.490;2022-07-29T00:54:27;2.10;;;0.50;;
41446;SDS011;27185;52.040;4.490;2022-07-29T00:57:13;3.10;;;0.60;;
41446;SDS011;27185;52.040;4.490;2022-07-29T00:59:59;2.90;;;0.60;;
41446;SDS011;27185;52.040;4.490;2022-07-29T01:02:45;2.55;;;0.47;;
41446;SDS011;27185;52.040;4.490;2022-07-29T01:05:34;2.83;;;0.68;;
41446;SDS011;27185;52.040;4.490;2022-07-29T01:08:20;3.30;;;0.50;;
41446;SDS011;27185;52.040;4.490;2022-07-29T01:13:54;1.60;;;0.40;;
41446;SDS011;27185;52.040;4.490;2022-07-29T01:17:00;2.65;;;0.50;;
41446;SDS011;27185;52.040;4.490;2022-07-29T01:26:31;1.40;;;0.50;;
41446;SDS011;27185;52.040;4.490;2022-07-29T01:29:32;3.17;;;0.70;;
41446;SDS011;27185;52.040;4.490;2022-07-29T01:32:29;2.28;;;0.60;;
41446;SDS011;27185;52.040;4.490;2022-07-29T01:35:26;5.05;;;0.50;;
41446;SDS011;27185;52.040;4.490;2022-07-29T01:38:21;1.55;;;0.50;;
41446;SDS011;27185;52.040;4.490;2022-07-29T01:41:12;3.13;;;0.75;;
41446;SDS011;27185;52.040;4.490;2022-07-29T01:44:24;4.38;;;0.55;;
41446;SDS011;27185;52.040;4.490;2022-07-29T01:47:17;2.53;;;0.55;;
41446;SDS011;27185;52.040;4.490;2022-07-29T01:50:08;2.10;;;0.60;;
41446;SDS011;27185;52.040;4.490;2022-07-29T01:52:58;2.63;;;0.47;;
41446;SDS011;27185;52.040;4.490;2022-07-29T01:55:45;2.35;;;0.50;;
41446;SDS011;27185;52.040;4.490;2022-07-29T01:58:33;1.75;;;0.68;;
41446;SDS011;27185;52.040;4.490;2022-07-29T02:01:23;3.55;;;0.60;;
41446;SDS011;27185;52.040;4.490;2022-07-29T02:04:11;2.42;;;0.55;;
41446;SDS011;27185;52.040;4.490;2022-07-29T02:07:07;2.90;;;0.60;;
41446;SDS011;27185;52.040;4.490;2022-07-29T02:09:57;1.83;;;0.57;;
41446;SDS011;27185;52.040;4.490;2022-07-29T02:15:32;3.72;;;0.50;;
41446;SDS011;27185;52.040;4.490;2022-07-29T02:18:19;3.65;;;0.60;;
41446;SDS011;27185;52.040;4.490;2022-07-29T02:21:07;1.75;;;0.50;;
41446;SDS011;27185;52.040;4.490;2022-07-29T02:23:54;1.83;;;0.47;;
41446;SDS011;27185;52.040;4.490;2022-07-29T02:26:44;1.95;;;0.70;;
41446;SDS011;27185;52.040;4.490;2022-07-29T02:29:30;3.90;;;0.65;;
41446;SDS011;27185;52.040;4.490;2022-07-29T02:32:18;2.35;;;0.60;;
41446;SDS011;27185;52.040;4.490;2022-07-29T02:35:06;4.60;;;0.70;;
41446;SDS011;27185;52.040;4.490;2022-07-29T02:37:54;1.63;;;0.70;;
41446;SDS011;27185;52.040;4.490;2022-07-29T02:41:00;4.30;;;0.60;;
41446;SDS011;27185;52.040;4.490;2022-07-29T02:43:50;1.80;;;0.60;;
41446;SDS011;27185;52.040;4.490;2022-07-29T02:46:42;1.00;;;0.50;;
41446;SDS011;27185;52.040;4.490;2022-07-29T02:52:44;3.10;;;0.60;;
41446;SDS011;27185;52.040;4.490;2022-07-29T02:55:43;1.52;;;0.60;;
41446;SDS011;27185;52.040;4.490;2022-07-29T02:58:32;3.15;;;0.60;;
41446;SDS011;27185;52.040;4.490;2022-07-29T03:01:25;1.40;;;0.55;;
41446;SDS011;27185;52.040;4.490;2022-07-29T03:04:14;2.97;;;0.60;;
41446;SDS011;27185;52.040;4.490;2022-07-29T03:09:48;2.75;;;0.57;;
41446;SDS011;27185;52.040;4.490;2022-07-29T03:12:35;3.53;;;0.70;;
41446;SDS011;27185;52.040;4.490;2022-07-29T03:15:21;2.72;;;0.60;;
41446;SDS011;27185;52.040;4.490;2022-07-29T03:18:07;6.68;;;0.70;;
41446;SDS011;27185;52.040;4.490;2022-07-29T03:20:53;2.05;;;0.70;;
41446;SDS011;27185;52.040;4.490;2022-07-29T03:23:43;2.63;;;0.60;;
41446;SDS011;27185;52.040;4.490;2022-07-29T03:26:32;1.02;;;0.63;;
41446;SDS011;27185;52.040;4.490;2022-07-29T03:29:18;4.05;;;0.80;;
41446;SDS011;27185;52.040;4.490;2022-07-29T03:32:04;4.60;;;1.00;;
41446;SDS011;27185;52.040;4.490;2022-07-29T03:34:50;2.70;;;0.70;;
41446;SDS011;27185;52.040;4.490;2022-07-29T03:37:36;3.72;;;0.57;;
41446;SDS011;27185;52.040;4.490;2022-07-29T03:40:22;3.50;;;0.80;;
41446;SDS011;27185;52.040;4.490;2022-07-29T03:43:16;5.07;;;0.85;;
41446;SDS011;27185;52.040;4.490;2022-07-29T03:46:03;2.15;;;0.70;;
41446;SDS011;27185;52.040;4.490;2022-07-29T03:48:52;3.28;;;0.73;;
41446;SDS011;27185;52.040;4.490;2022-07-29T03:51:43;2.03;;;0.80;;
41446;SDS011;27185;52.040;4.490;2022-07-29T03:54:29;2.38;;;0.85;;
41446;SDS011;27185;52.040;4.490;2022-07-29T03:57:14;5.00;;;0.90;;
41446;SDS011;27185;52.040;4.490;2022-07-29T04:00:03;3.33;;;0.93;;
41446;SDS011;27185;52.040;4.490;2022-07-29T04:02:50;2.72;;;0.90;;
41446;SDS011;27185;52.040;4.490;2022-07-29T04:05:36;2.28;;;0.77;;
41446;SDS011;27185;52.040;4.490;2022-07-29T04:08:21;2.35;;;0.80;;
41446;SDS011;27185;52.040;4.490;2022-07-29T04:11:07;4.13;;;0.80;;
41446;SDS011;27185;52.040;4.490;2022-07-29T04:13:53;2.72;;;0.98;;
41446;SDS011;27185;52.040;4.490;2022-07-29T04:16:38;2.53;;;0.88;;
41446;SDS011;27185;52.040;4.490;2022-07-29T04:19:24;5.25;;;1.05;;
41446;SDS011;27185;52.040;4.490;2022-07-29T04:22:09;4.68;;;1.00;;
41446;SDS011;27185;52.040;4.490;2022-07-29T04:24:55;2.10;;;0.80;;
41446;SDS011;27185;52.040;4.490;2022-07-29T04:27:40;1.65;;;0.82;;
41446;SDS011;27185;52.040;4.490;2022-07-29T04:30:45;3.25;;;0.70;;
41446;SDS011;27185;52.040;4.490;2022-07-29T04:33:30;2.15;;;0.60;;
41446;SDS011;27185;52.040;4.490;2022-07-29T04:36:16;3.88;;;1.00;;
41446;SDS011;27185;52.040;4.490;2022-07-29T04:39:02;3.35;;;0.82;;
41446;SDS011;27185;52.040;4.490;2022-07-29T04:41:48;2.55;;;0.90;;
41446;SDS011;27185;52.040;4.490;2022-07-29T04:44:35;3.70;;;0.70;;
41446;SDS011;27185;52.040;4.490;2022-07-29T04:47:20;1.77;;;0.88;;
41446;SDS011;27185;52.040;4.490;2022-07-29T04:50:06;1.92;;;0.90;;
41446;SDS011;27185;52.040;4.490;2022-07-29T04:52:53;4.32;;;0.98;;
41446;SDS011;27185;52.040;4.490;2022-07-29T04:55:38;5.78;;;1.00;;
41446;SDS011;27185;52.040;4.490;2022-07-29T04:58:24;1.80;;;0.65;;
41446;SDS011;27185;52.040;4.490;2022-07-29T05:01:09;1.85;;;0.98;;
41446;SDS011;27185;52.040;4.490;2022-07-29T05:03:55;3.17;;;0.85;;
41446;SDS011;27185;52.040;4.490;2022-07-29T05:06:40;2.75;;;0.70;;
41446;SDS011;27185;52.040;4.490;2022-07-29T05:09:26;2.35;;;0.73;;
41446;SDS011;27185;52.040;4.490;2022-07-29T05:12:12;3.53;;;0.90;;
41446;SDS011;27185;52.040;4.490;2022-07-29T05:14:58;4.95;;;1.05;;
41446;SDS011;27185;52.040;4.490;2022-07-29T05:17:43;2.95;;;0.90;;
41446;SDS011;27185;52.040;4.490;2022-07-29T05:20:29;5.30;;;1.10;;
41446;SDS011;27185;52.040;4.490;2022-07-29T05:23:15;2.72;;;0.82;;
41446;SDS011;27185;52.040;4.490;2022-07-29T05:26:01;3.25;;;0.80;;
41446;SDS011;27185;52.040;4.490;2022-07-29T05:28:47;2.95;;;1.15;;
41446;SDS011;27185;52.040;4.490;2022-07-29T05:31:32;2.92;;;1.13;;
41446;SDS011;27185;52.040;4.490;2022-07-29T05:34:18;6.07;;;1.35;;
41446;SDS011;27185;52.040;4.490;2022-07-29T05:37:04;2.75;;;0.85;;
41446;SDS011;27185;52.040;4.490;2022-07-29T05:39:50;2.03;;;0.80;;
41446;SDS011;27185;52.040;4.490;2022-07-29T05:42:35;2.08;;;0.75;;
41446;SDS011;27185;52.040;4.490;2022-07-29T05:45:21;2.28;;;0.88;;
41446;SDS011;27185;52.040;4.490;2022-07-29T05:48:08;2.83;;;0.90;;
41446;SDS011;27185;52.040;4.490;2022-07-29T05:50:54;3.45;;;0.93;;
41446;SDS011;27185;52.040;4.490;2022-07-29T05:53:40;3.22;;;0.90;;
41446;SDS011;27185;52.040;4.490;2022-07-29T05:56:25;3.30;;;0.80;;
41446;SDS011;27185;52.040;4.490;2022-07-29T05:59:11;2.70;;;0.80;;
41446;SDS011;27185;52.040;4.490;2022-07-29T06:01:57;5.13;;;0.90;;
41446;SDS011;27185;52.040;4.490;2022-07-29T06:04:42;3.85;;;1.00;;
41446;SDS011;27185;52.040;4.490;2022-07-29T06:07:28;4.85;;;0.70;;
41446;SDS011;27185;52.040;4.490;2022-07-29T06:10:14;2.78;;;0.88;;
41446;SDS011;27185;52.040;4.490;2022-07-29T06:12:59;4.13;;;0.90;;
41446;SDS011;27185;52.040;4.490;2022-07-29T06:15:45;4.60;;;0.90;;
41446;SDS011;27185;52.040;4.490;2022-07-29T06:18:31;3.17;;;0.70;;
41446;SDS011;27185;52.040;4.490;2022-07-29T06:21:16;2.47;;;0.73;;
41446;SDS011;27185;52.040;4.490;2022-07-29T06:24:02;2.47;;;0.70;;
41446;SDS011;27185;52.040;4.490;2022-07-29T06:26:47;6.93;;;0.80;;
41446;SDS011;27185;52.040;4.490;2022-07-29T06:29:33;3.40;;;0.70;;
41446;SDS011;27185;52.040;4.490;2022-07-29T06:32:19;2.85;;;0.80;;
41446;SDS011;27185;52.040;4.490;2022-07-29T06:35:04;7.90;;;1.10;;
41446;SDS011;27185;52.040;4.490;2022-07-29T06:37:50;2.15;;;0.60;;
41446;SDS011;27185;52.040;4.490;2022-07-29T06:40:36;2.28;;;0.80;;
41446;SDS011;27185;52.040;4.490;2022-07-29T06:43:48;4.68;;;0.80;;
41446;SDS011;27185;52.040;4.490;2022-07-29T06:46:36;4.53;;;0.90;;
41446;SDS011;27185;52.040;4.490;2022-07-29T06:49:21;2.45;;;0.80;;
41446;SDS011;27185;52.040;4.490;2022-07-29T06:52:09;2.78;;;0.80;;
41446;SDS011;27185;52.040;4.490;2022-07-29T06:54:54;4.35;;;0.82;;
41446;SDS011;27185;52.040;4.490;2022-07-29T06:57:40;8.25;;;1.60;;
41446;SDS011;27185;52.040;4.490;2022-07-29T07:00:26;3.92;;;1.52;;
41446;SDS011;27185;52.040;4.490;2022-07-29T07:03:11;2.83;;;1.13;;
41446;SDS011;27185;52.040;4.490;2022-07-29T07:05:57;3.60;;;0.73;;
41446;SDS011;27185;52.040;4.490;2022-07-29T07:08:43;1.42;;;0.65;;
41446;SDS011;27185;52.040;4.490;2022-07-29T07:11:29;3.20;;;0.77;;
41446;SDS011;27185;52.040;4.490;2022-07-29T07:14:14;5.32;;;0.90;;
41446;SDS011;27185;52.040;4.490;2022-07-29T07:17:00;6.63;;;0.85;;
41446;SDS011;27185;52.040;4.490;2022-07-29T07:19:48;3.28;;;0.80;;
41446;SDS011;27185;52.040;4.490;2022-07-29T07:22:33;3.08;;;0.85;;
41446;SDS011;27185;52.040;4.490;2022-07-29T07:25:19;3.13;;;0.80;;
41446;SDS011;27185;52.040;4.490;2022-07-29T07:28:05;3.80;;;1.10;;
41446;SDS011;27185;52.040;4.490;2022-07-29T07:30:51;4.38;;;0.70;;
41446;SDS011;27185;52.040;4.490;2022-07-29T07:33:36;2.90;;;0.80;;
41446;SDS011;27185;52.040;4.490;2022-07-29T07:36:22;2.60;;;0.80;;
41446;SDS011;27185;52.040;4.490;2022-07-29T07:39:08;2.38;;;0.80;;
41446;SDS011;27185;52.040;4.490;2022-07-29T07:41:53;2.72;;;0.73;;
41446;SDS011;27185;52.040;4.490;2022-07-29T07:44:39;3.67;;;1.08;;
41446;SDS011;27185;52.040;4.490;2022-07-29T07:47:25;4.80;;;2.13;;
41446;SDS011;27185;52.040;4.490;2022-07-29T07:50:11;2.42;;;0.93;;
41446;SDS011;27185;52.040;4.490;2022-07-29T07:52:57;2.92;;;1.00;;
41446;SDS011;27185;52.040;4.490;2022-07-29T07:55:43;2.92;;;0.80;;
41446;SDS011;27185;52.040;4.490;2022-07-29T07:58:30;3.35;;;0.85;;
41446;SDS011;27185;52.040;4.490;2022-07-29T08:01:15;2.17;;;0.80;;
41446;SDS011;27185;52.040;4.490;2022-07-29T08:04:03;2.22;;;0.90;;
41446;SDS011;27185;52.040;4.490;2022-07-29T08:06:50;3.67;;;0.90;;
41446;SDS011;27185;52.040;4.490;2022-07-29T08:09:39;4.00;;;0.95;;
41446;SDS011;27185;52.040;4.490;2022-07-29T08:12:24;2.53;;;0.80;;
41446;SDS011;27185;52.040;4.490;2022-07-29T08:15:10;5.55;;;0.93;;
41446;SDS011;27185;52.040;4.490;2022-07-29T08:17:55;2.97;;;0.95;;
41446;SDS011;27185;52.040;4.490;2022-07-29T08:20:41;2.70;;;1.10;;
41446;SDS011;27185;52.040;4.490;2022-07-29T08:23:27;2.50;;;1.02;;
41446;SDS011;27185;52.040;4.490;2022-07-29T08:26:19;2.92;;;1.33;;
41446;SDS011;27185;52.040;4.490;2022-07-29T08:29:07;2.78;;;0.95;;
41446;SDS011;27185;52.040;4.490;2022-07-29T08:31:53;2.70;;;1.20;;
41446;SDS011;27185;52.040;4.490;2022-07-29T08:34:39;2.88;;;1.10;;
41446;SDS011;27185;52.040;4.490;2022-07-29T08:37:24;4.07;;;1.30;;
41446;SDS011;27185;52.040;4.490;2022-07-29T08:40:10;3.67;;;1.30;;
41446;SDS011;27185;52.040;4.490;2022-07-29T08:42:56;3.67;;;1.30;;
41446;SDS011;27185;52.040;4.490;2022-07-29T08:45:43;4.15;;;1.17;;
41446;SDS011;27185;52.040;4.490;2022-07-29T08:48:33;3.45;;;1.30;;
41446;SDS011;27185;52.040;4.490;2022-07-29T08:51:19;2.28;;;1.00;;
41446;SDS011;27185;52.040;4.490;2022-07-29T08:54:05;4.82;;;1.40;;
41446;SDS011;27185;52.040;4.490;2022-07-29T08:56:53;3.85;;;1.40;;
41446;SDS011;27185;52.040;4.490;2022-07-29T08:59:40;5.60;;;1.23;;
41446;SDS011;27185;52.040;4.490;2022-07-29T09:05:14;3.65;;;1.20;;
41446;SDS011;27185;52.040;4.490;2022-07-29T09:08:00;4.38;;;1.05;;
41446;SDS011;27185;52.040;4.490;2022-07-29T09:10:46;5.63;;;0.98;;
41446;SDS011;27185;52.040;4.490;2022-07-29T09:13:33;3.88;;;1.20;;
41446;SDS011;27185;52.040;4.490;2022-07-29T09:16:19;3.28;;;1.00;;
41446;SDS011;27185;52.040;4.490;2022-07-29T09:19:10;3.65;;;1.20;;
41446;SDS011;27185;52.040;4.490;2022-07-29T09:22:05;4.68;;;1.48;;
41446;SDS011;27185;52.040;4.490;2022-07-29T09:24:52;3.67;;;1.38;;
41446;SDS011;27185;52.040;4.490;2022-07-29T09:27:39;3.88;;;1.42;;
41446;SDS011;27185;52.040;4.490;2022-07-29T09:30:25;6.20;;;1.65;;
41446;SDS011;27185;52.040;4.490;2022-07-29T09:33:13;6.45;;;1.77;;
41446;SDS011;27185;52.040;4.490;2022-07-29T09:36:00;5.30;;;1.67;;
41446;SDS011;27185;52.040;4.490;2022-07-29T09:38:59;6.97;;;1.60;;
41446;SDS011;27185;52.040;4.490;2022-07-29T09:44:47;4.82;;;1.83;;
41446;SDS011;27185;52.040;4.490;2022-07-29T09:47:45;4.40;;;2.22;;
41446;SDS011;27185;52.040;4.490;2022-07-29T09:50:40;7.32;;;1.70;;
41446;SDS011;27185;52.040;4.490;2022-07-29T09:53:36;4.05;;;2.00;;
41446;SDS011;27185;52.040;4.490;2022-07-29T09:56:44;5.05;;;2.15;;
41446;SDS011;27185;52.040;4.490;2022-07-29T09:59:28;3.83;;;1.73;;
41446;SDS011;27185;52.040;4.490;2022-07-29T10:02:14;5.15;;;1.20;;
41446;SDS011;27185;52.040;4.490;2022-07-29T10:05:00;5.32;;;1.75;;
41446;SDS011;27185;52.040;4.490;2022-07-29T10:07:52;5.05;;;1.65;;
41446;SDS011;27185;52.040;4.490;2022-07-29T10:10:40;3.92;;;1.80;;
41446;SDS011;27185;52.040;4.490;2022-07-29T10:13:27;4.82;;;1.30;;
41446;SDS011;27185;52.040;4.490;2022-07-29T10:16:13;4.78;;;1.95;;
41446;SDS011;27185;52.040;4.490;2022-07-29T10:19:00;4.78;;;1.77;;
41446;SDS011;27185;52.040;4.490;2022-07-29T10:21:46;5.32;;;1.75;;
41446;SDS011;27185;52.040;4.490;2022-07-29T10:24:32;7.25;;;1.40;;
41446;SDS011;27185;52.040;4.490;2022-07-29T10:27:18;2.65;;;1.15;;
41446;SDS011;27185;52.040;4.490;2022-07-29T10:30:04;4.43;;;1.08;;
41446;SDS011;27185;52.040;4.490;2022-07-29T10:39:05;2.60;;;0.80;;
41446;SDS011;27185;52.040;4.490;2022-07-29T10:45:06;4.38;;;0.70;;
41446;SDS011;27185;52.040;4.490;2022-07-29T10:48:02;5.90;;;1.00;;
41446;SDS011;27185;52.040;4.490;2022-07-29T10:51:00;4.50;;;0.93;;
41446;SDS011;27185;52.040;4.490;2022-07-29T10:53:50;4.88;;;0.88;;
41446;SDS011;27185;52.040;4.490;2022-07-29T11:05:22;5.40;;;0.90;;
41446;SDS011;27185;52.040;4.490;2022-07-29T11:14:09;4.15;;;0.80;;
41446;SDS011;27185;52.040;4.490;2022-07-29T11:17:02;2.03;;;0.80;;
41446;SDS011;27185;52.040;4.490;2022-07-29T11:19:50;3.92;;;0.80;;
41446;SDS011;27185;52.040;4.490;2022-07-29T11:22:36;3.00;;;0.88;;
41446;SDS011;27185;52.040;4.490;2022-07-29T11:25:22;2.20;;;0.70;;
41446;SDS011;27185;52.040;4.490;2022-07-29T11:28:09;4.65;;;0.88;;
41446;SDS011;27185;52.040;4.490;2022-07-29T11:31:01;3.17;;;0.73;;
41446;SDS011;27185;52.040;4.490;2022-07-29T11:33:48;3.13;;;0.90;;
41446;SDS011;27185;52.040;4.490;2022-07-29T11:36:33;4.55;;;0.77;;
41446;SDS011;27185;52.040;4.490;2022-07-29T11:39:25;4.95;;;0.60;;
41446;SDS011;27185;52.040;4.490;2022-07-29T11:45:14;3.53;;;0.60;;
41446;SDS011;27185;52.040;4.490;2022-07-29T11:48:02;3.83;;;0.80;;
41446;SDS011;27185;52.040;4.490;2022-07-29T11:50:50;5.10;;;0.80;;
41446;SDS011;27185;52.040;4.490;2022-07-29T11:53:37;2.83;;;1.02;;
41446;SDS011;27185;52.040;4.490;2022-07-29T11:56:24;1.98;;;0.60;;
41446;SDS011;27185;52.040;4.490;2022-07-29T11:59:14;2.17;;;0.75;;
41446;SDS011;27185;52.040;4.490;2022-07-29T12:02:00;3.50;;;1.05;;
41446;SDS011;27185;52.040;4.490;2022-07-29T12:04:50;3.03;;;0.70;;
41446;SDS011;27185;52.040;4.490;2022-07-29T12:07:37;2.25;;;0.57;;
41446;SDS011;27185;52.040;4.490;2022-07-29T12:10:24;3.55;;;0.60;;
41446;SDS011;27185;52.040;4.490;2022-07-29T12:13:18;5.80;;;0.88;;
41446;SDS011;27185;52.040;4.490;2022-07-29T12:16:05;5.03;;;1.00;;
41446;SDS011;27185;52.040;4.490;2022-07-29T12:18:55;2.22;;;0.80;;
41446;SDS011;27185;52.040;4.490;2022-07-29T12:21:45;2.90;;;0.75;;
41446;SDS011;27185;52.040;4.490;2022-07-29T12:24:43;2.53;;;0.75;;
41446;SDS011;27185;52.040;4.490;2022-07-29T12:27:29;3.25;;;0.88;;
41446;SDS011;27185;52.040;4.490;2022-07-29T12:30:15;2.83;;;0.90;;
41446;SDS011;27185;52.040;4.490;2022-07-29T12:33:01;2.97;;;0.90;;
41446;SDS011;27185;52.040;4.490;2022-07-29T12:36:21;5.70;;;1.20;;
41446;SDS011;27185;52.040;4.490;2022-07-29T12:39:07;3.53;;;1.27;;
41446;SDS011;27185;52.040;4.490;2022-07-29T12:41:54;2.90;;;1.25;;
41446;SDS011;27185;52.040;4.490;2022-07-29T12:44:43;4.13;;;0.70;;
41446;SDS011;27185;52.040;4.490;2022-07-29T12:47:30;4.07;;;0.85;;
41446;SDS011;27185;52.040;4.490;2022-07-29T12:50:16;3.75;;;0.80;;
41446;SDS011;27185;52.040;4.490;2022-07-29T12:53:09;4.78;;;0.98;;
41446;SDS011;27185;52.040;4.490;2022-07-29T12:55:59;5.13;;;0.80;;
41446;SDS011;27185;52.040;4.490;2022-07-29T12:58:46;2.65;;;0.68;;
41446;SDS011;27185;52.040;4.490;2022-07-29T13:01:36;4.38;;;0.70;;
41446;SDS011;27185;52.040;4.490;2022-07-29T13:07:17;5.35;;;1.17;;
41446;SDS011;27185;52.040;4.490;2022-07-29T13:10:15;2.60;;;0.60;;
41446;SDS011;27185;52.040;4.490;2022-07-29T13:13:12;4.65;;;0.90;;
41446;SDS011;27185;52.040;4.490;2022-07-29T13:16:06;2.25;;;0.85;;
41446;SDS011;27185;52.040;4.490;2022-07-29T13:19:09;2.60;;;0.63;;
41446;SDS011;27185;52.040;4.490;2022-07-29T13:21:56;3.85;;;0.80;;
41446;SDS011;27185;52.040;4.490;2022-07-29T13:24:53;2.80;;;0.57;;
41446;SDS011;27185;52.040;4.490;2022-07-29T13:27:40;2.95;;;0.60;;
41446;SDS011;27185;52.040;4.490;2022-07-29T13:30:26;3.15;;;0.60;;
41446;SDS011;27185;52.040;4.490;2022-07-29T13:33:12;2.30;;;0.50;;
41446;SDS011;27185;52.040;4.490;2022-07-29T13:35:58;2.22;;;0.50;;
41446;SDS011;27185;52.040;4.490;2022-07-29T13:38:44;3.42;;;0.70;;
41446;SDS011;27185;52.040;4.490;2022-07-29T13:41:30;2.72;;;0.70;;
41446;SDS011;27185;52.040;4.490;2022-07-29T13:44:15;3.20;;;0.80;;
41446;SDS011;27185;52.040;4.490;2022-07-29T13:47:02;2.42;;;0.93;;
41446;SDS011;27185;52.040;4.490;2022-07-29T13:49:48;2.47;;;0.60;;
41446;SDS011;27185;52.040;4.490;2022-07-29T13:52:34;2.55;;;0.75;;
41446;SDS011;27185;52.040;4.490;2022-07-29T13:55:19;2.47;;;0.65;;
41446;SDS011;27185;52.040;4.490;2022-07-29T13:58:05;2.53;;;0.63;;
41446;SDS011;27185;52.040;4.490;2022-07-29T14:00:51;2.72;;;0.52;;
41446;SDS011;27185;52.040;4.490;2022-07-29T14:03:36;4.90;;;0.60;;
41446;SDS011;27185;52.040;4.490;2022-07-29T14:06:26;3.05;;;0.60;;
41446;SDS011;27185;52.040;4.490;2022-07-29T14:09:11;2.72;;;0.50;;
41446;SDS011;27185;52.040;4.490;2022-07-29T14:11:57;4.10;;;0.68;;
41446;SDS011;27185;52.040;4.490;2022-07-29T14:14:42;1.48;;;0.60;;
41446;SDS011;27185;52.040;4.490;2022-07-29T14:17:28;3.40;;;0.80;;
41446;SDS011;27185;52.040;4.490;2022-07-29T14:20:14;5.65;;;0.68;;
41446;SDS011;27185;52.040;4.490;2022-07-29T14:23:00;1.48;;;0.50;;
41446;SDS011;27185;52.040;4.490;2022-07-29T14:25:46;2.00;;;0.60;;
41446;SDS011;27185;52.040;4.490;2022-07-29T14:28:32;2.10;;;0.52;;
41446;SDS011;27185;52.040;4.490;2022-07-29T14:31:17;2.38;;;0.52;;
41446;SDS011;27185;52.040;4.490;2022-07-29T14:34:03;3.63;;;0.55;;
41446;SDS011;27185;52.040;4.490;2022-07-29T14:36:48;3.85;;;0.52;;
41446;SDS011;27185;52.040;4.490;2022-07-29T14:39:34;4.72;;;0.50;;
41446;SDS011;27185;52.040;4.490;2022-07-29T14:42:21;2.40;;;0.50;;
41446;SDS011;27185;52.040;4.490;2022-07-29T14:45:07;5.95;;;0.50;;
41446;SDS011;27185;52.040;4.490;2022-07-29T14:50:39;1.77;;;0.45;;
41446;SDS011;27185;52.040;4.490;2022-07-29T14:53:25;2.22;;;0.40;;
41446;SDS011;27185;52.040;4.490;2022-07-29T17:47:08;5.30;;;1.02;;
41446;SDS011;27185;52.040;4.490;2022-07-29T17:49:54;3.78;;;1.13;;
41446;SDS011;27185;52.040;4.490;2022-07-29T17:52:40;6.30;;;0.80;;
41446;SDS011;27185;52.040;4.490;2022-07-29T17:55:25;5.13;;;1.10;;
41446;SDS011;27185;52.040;4.490;2022-07-29T17:58:11;4.95;;;1.35;;
41446;SDS011;27185;52.040;4.490;2022-07-29T18:00:57;5.05;;;1.10;;
41446;SDS011;27185;52.040;4.490;2022-07-29T18:03:43;3.55;;;0.80;;
41446;SDS011;27185;52.040;4.490;2022-07-29T18:06:28;3.65;;;0.90;;
41446;SDS011;27185;52.040;4.490;2022-07-29T18:09:14;5.60;;;0.98;;
41446;SDS011;27185;52.040;4.490;2022-07-29T18:11:59;5.53;;;0.95;;
41446;SDS011;27185;52.040;4.490;2022-07-29T18:14:45;5.43;;;1.10;;
41446;SDS011;27185;52.040;4.490;2022-07-29T18:17:30;7.55;;;1.27;;
41446;SDS011;27185;52.040;4.490;2022-07-29T18:20:16;5.22;;;1.00;;
41446;SDS011;27185;52.040;4.490;2022-07-29T18:23:02;8.40;;;1.50;;
41446;SDS011;27185;52.040;4.490;2022-07-29T18:25:47;8.65;;;1.33;;
41446;SDS011;27185;52.040;4.490;2022-07-29T18:28:33;9.45;;;1.45;;
41446;SDS011;27185;52.040;4.490;2022-07-29T18:31:19;5.18;;;1.02;;
41446;SDS011;27185;52.040;4.490;2022-07-29T18:34:04;5.75;;;1.08;;
41446;SDS011;27185;52.040;4.490;2022-07-29T18:36:50;6.85;;;1.25;;
41446;SDS011;27185;52.040;4.490;2022-07-29T18:39:35;5.60;;;1.05;;
41446;SDS011;27185;52.040;4.490;2022-07-29T18:42:21;4.68;;;1.38;;
41446;SDS011;27185;52.040;4.490;2022-07-29T18:45:07;4.78;;;1.02;;
41446;SDS011;27185;52.040;4.490;2022-07-29T18:47:53;4.45;;;1.00;;
41446;SDS011;27185;52.040;4.490;2022-07-29T18:50:38;3.97;;;1.13;;
41446;SDS011;27185;52.040;4.490;2022-07-29T18:53:25;6.20;;;1.25;;
41446;SDS011;27185;52.040;4.490;2022-07-29T18:56:10;5.63;;;1.23;;
41446;SDS011;27185;52.040;4.490;2022-07-29T18:58:56;4.90;;;1.15;;
41446;SDS011;27185;52.040;4.490;2022-07-29T19:01:42;5.38;;;1.00;;
41446;SDS011;27185;52.040;4.490;2022-07-29T19:04:28;5.78;;;1.20;;
41446;SDS011;27185;52.040;4.490;2022-07-29T19:07:13;6.60;;;1.70;;
41446;SDS011;27185;52.040;4.490;2022-07-29T19:10:00;9.73;;;2.28;;
41446;SDS011;27185;52.040;4.490;2022-07-29T19:12:46;4.93;;;1.27;;
41446;SDS011;27185;52.040;4.490;2022-07-29T19:15:32;8.00;;;1.40;;
41446;SDS011;27185;52.040;4.490;2022-07-29T19:18:17;5.53;;;1.45;;
41446;SDS011;27185;52.040;4.490;2022-07-29T19:21:03;9.50;;;1.40;;
41446;SDS011;27185;52.040;4.490;2022-07-29T19:23:48;7.70;;;1.40;;
41446;SDS011;27185;52.040;4.490;2022-07-29T19:26:34;4.68;;;1.38;;
41446;SDS011;27185;52.040;4.490;2022-07-29T19:29:20;7.85;;;1.55;;
41446;SDS011;27185;52.040;4.490;2022-07-29T19:32:07;6.30;;;1.92;;
41446;SDS011;27185;52.040;4.490;2022-07-29T19:34:53;10.55;;;1.52;;
41446;SDS011;27185;52.040;4.490;2022-07-29T19:37:58;6.35;;;1.65;;
41446;SDS011;27185;52.040;4.490;2022-07-29T19:40:44;8.82;;;1.65;;
41446;SDS011;27185;52.040;4.490;2022-07-29T19:43:30;6.60;;;1.17;;
41446;SDS011;27185;52.040;4.490;2022-07-29T19:46:16;5.68;;;1.40;;
41446;SDS011;27185;52.040;4.490;2022-07-29T19:49:01;8.07;;;1.52;;
41446;SDS011;27185;52.040;4.490;2022-07-29T19:51:50;13.50;;;2.30;;
41446;SDS011;27185;52.040;4.490;2022-07-29T19:54:35;5.47;;;1.40;;
41446;SDS011;27185;52.040;4.490;2022-07-29T19:57:21;7.60;;;1.60;;
41446;SDS011;27185;52.040;4.490;2022-07-29T20:00:08;6.03;;;1.50;;
41446;SDS011;27185;52.040;4.490;2022-07-29T20:02:55;6.43;;;1.35;;
41446;SDS011;27185;52.040;4.490;2022-07-29T20:05:41;5.63;;;1.48;;
41446;SDS011;27185;52.040;4.490;2022-07-29T20:08:27;5.32;;;1.35;;
41446;SDS011;27185;52.040;4.490;2022-07-29T20:11:12;8.60;;;1.38;;
41446;SDS011;27185;52.040;4.490;2022-07-29T20:13:58;5.13;;;1.40;;
41446;SDS011;27185;52.040;4.490;2022-07-29T20:16:44;8.45;;;1.58;;
41446;SDS011;27185;52.040;4.490;2022-07-29T20:19:29;5.93;;;1.25;;
41446;SDS011;27185;52.040;4.490;2022-07-29T20:22:16;6.78;;;1.30;;
41446;SDS011;27185;52.040;4.490;2022-07-29T20:25:04;9.27;;;1.60;;
41446;SDS011;27185;52.040;4.490;2022-07-29T20:27:51;5.55;;;1.88;;
41446;SDS011;27185;52.040;4.490;2022-07-29T20:30:36;4.80;;;1.40;;
41446;SDS011;27185;52.040;4.490;2022-07-29T20:33:22;4.97;;;1.38;;
41446;SDS011;27185;52.040;4.490;2022-07-29T20:36:07;4.43;;;1.35;;
41446;SDS011;27185;52.040;4.490;2022-07-29T20:38:53;7.30;;;1.70;;